createdAt,value
2023-04-13T00:00:52.673Z,10.18
2023-04-13T00:03:19.917Z,10.05
2023-04-13T00:05:47.198Z,9.63
2023-04-13T00:08:14.463Z,10.15
2023-04-13T00:10:42.002Z,9.45
2023-04-13T00:13:11.160Z,11.30
2023-04-13T00:15:42.249Z,9.48
2023-04-13T00:18:11.147Z,9.80
2023-04-13T00:20:39.388Z,9.88
2023-04-13T00:23:06.574Z,10.70
2023-04-13T00:25:34.703Z,10.25
2023-04-13T00:28:06.514Z,10.25
2023-04-13T00:30:33.648Z,10.52
2023-04-13T00:33:03.865Z,10.63
2023-04-13T00:35:31.325Z,11.38
2023-04-13T00:37:59.042Z,10.75
2023-04-13T00:40:28.277Z,10.77
2023-04-13T00:42:55.291Z,11.25
2023-04-13T00:45:22.328Z,11.55
2023-04-13T00:47:51.070Z,11.23
2023-04-13T00:50:21.356Z,10.85
2023-04-13T00:52:49.203Z,11.07
2023-04-13T00:55:21.368Z,10.70
2023-04-13T00:57:50.489Z,11.90
2023-04-13T01:00:18.563Z,11.88
2023-04-13T01:02:45.610Z,10.98
2023-04-13T01:05:15.782Z,11.20
2023-04-13T01:08:00.485Z,11.43
2023-04-13T01:10:45.556Z,11.70
2023-04-13T01:13:41.459Z,12.00
2023-04-13T01:18:49.268Z,12.52
2023-04-13T01:21:21.887Z,11.90
2023-04-13T01:24:23.171Z,13.35
2023-04-13T01:27:05.843Z,11.77
2023-04-13T01:29:34.276Z,12.02
2023-04-13T01:32:02.175Z,10.85
2023-04-13T01:34:29.812Z,11.07
2023-04-13T01:36:57.376Z,11.07
2023-04-13T01:39:27.102Z,11.43
2023-04-13T01:41:54.532Z,11.65
2023-04-13T01:44:22.526Z,12.00
2023-04-13T01:46:54.515Z,12.02
2023-04-13T01:49:23.340Z,12.00
2023-04-13T01:51:53.718Z,10.98
2023-04-13T01:54:25.857Z,11.23
2023-04-13T01:56:53.793Z,11.63
2023-04-13T01:59:22.868Z,11.40
2023-04-13T02:01:50.095Z,11.15
2023-04-13T02:04:17.268Z,11.35
2023-04-13T02:06:44.374Z,11.23
2023-04-13T02:09:12.129Z,10.80
2023-04-13T02:11:39.516Z,10.55
2023-04-13T02:14:06.783Z,10.35
2023-04-13T02:16:34.033Z,10.38
2023-04-13T02:19:04.274Z,10.18
2023-04-13T02:21:31.125Z,9.57
2023-04-13T02:23:58.478Z,9.57
2023-04-13T02:26:26.441Z,8.70
2023-04-13T02:28:53.418Z,10.07
2023-04-13T02:31:23.619Z,8.27
2023-04-13T02:33:51.954Z,8.20
2023-04-13T02:36:19.405Z,9.15
2023-04-13T02:38:50.510Z,8.82
2023-04-13T02:41:23.126Z,8.68
2023-04-13T02:43:52.558Z,8.18
2023-04-13T02:46:19.529Z,7.90
2023-04-13T02:48:46.983Z,9.75
2023-04-13T02:51:13.981Z,9.18
2023-04-13T02:53:41.536Z,9.05
2023-04-13T02:56:09.745Z,9.02
2023-04-13T02:58:36.845Z,8.73
2023-04-13T03:01:04.642Z,8.07
2023-04-13T03:03:31.574Z,9.07
2023-04-13T03:05:58.957Z,8.25
2023-04-13T03:08:26.163Z,8.38
2023-04-13T03:10:54.506Z,8.77
2023-04-13T03:13:21.761Z,8.25
2023-04-13T03:15:48.484Z,8.48
2023-04-13T03:18:16.455Z,8.68
2023-04-13T03:20:44.388Z,7.78
2023-04-13T03:23:12.108Z,8.50
2023-04-13T03:25:39.850Z,8.25
2023-04-13T03:28:06.739Z,8.40
2023-04-13T03:30:34.265Z,9.07
2023-04-13T03:33:01.215Z,8.40
2023-04-13T03:35:28.395Z,8.57
2023-04-13T03:37:56.198Z,8.05
2023-04-13T03:40:23.245Z,8.07
2023-04-13T03:42:50.188Z,8.07
2023-04-13T03:45:18.504Z,7.43
2023-04-13T03:47:45.533Z,8.13
2023-04-13T03:50:12.766Z,7.38
2023-04-13T03:52:40.909Z,7.80
2023-04-13T03:55:08.376Z,7.95
2023-04-13T03:57:37.340Z,8.32
2023-04-13T04:00:07.130Z,7.53
2023-04-13T04:02:34.560Z,7.60
2023-04-13T04:05:01.559Z,7.65
2023-04-13T04:07:28.479Z,7.15
2023-04-13T04:09:58.318Z,7.95
2023-04-13T04:12:25.108Z,7.22
2023-04-13T04:14:52.334Z,7.82
2023-04-13T04:17:19.276Z,7.22
2023-04-13T04:19:46.837Z,6.47
2023-04-13T04:22:14.297Z,7.35
2023-04-13T04:24:42.542Z,7.50
2023-04-13T04:27:09.455Z,6.70
2023-04-13T04:29:36.488Z,6.70
2023-04-13T04:32:05.875Z,6.95
2023-04-13T04:34:43.673Z,6.13
2023-04-13T04:37:20.076Z,6.38
2023-04-13T04:39:47.496Z,6.57
2023-04-13T04:42:14.905Z,6.65
2023-04-13T04:44:44.785Z,6.10
2023-04-13T04:47:13.669Z,7.13
2023-04-13T04:49:40.914Z,6.57
2023-04-13T04:52:12.698Z,7.25
2023-04-13T04:54:39.987Z,6.00
2023-04-13T04:57:10.819Z,6.07
2023-04-13T04:59:37.844Z,5.80
2023-04-13T05:02:04.850Z,6.07
2023-04-13T05:04:31.660Z,5.53
2023-04-13T05:06:58.580Z,6.18
2023-04-13T05:09:26.221Z,6.43
2023-04-13T05:11:53.266Z,6.10
2023-04-13T05:14:20.842Z,6.18
2023-04-13T05:16:48.164Z,6.40
2023-04-13T05:19:15.127Z,6.38
2023-04-13T05:21:41.990Z,5.78
2023-04-13T05:24:09.085Z,6.13
2023-04-13T05:26:36.031Z,6.05
2023-04-13T05:29:04.867Z,5.82
2023-04-13T05:31:32.388Z,6.60
2023-04-13T05:33:59.352Z,6.13
2023-04-13T05:36:26.810Z,6.35
2023-04-13T05:38:53.789Z,6.75
2023-04-13T05:41:24.282Z,6.15
2023-04-13T05:43:51.440Z,6.45
2023-04-13T05:46:18.651Z,7.15
2023-04-13T05:48:45.683Z,5.70
2023-04-13T05:51:18.526Z,5.70
2023-04-13T05:53:47.166Z,6.68
2023-04-13T05:56:13.960Z,5.72
2023-04-13T05:58:41.971Z,5.78
2023-04-13T06:01:12.976Z,5.95
2023-04-13T06:03:40.044Z,6.20
2023-04-13T06:06:07.313Z,5.85
2023-04-13T06:08:34.938Z,6.15
2023-04-13T06:11:03.219Z,6.05
2023-04-13T06:13:32.040Z,6.07
2023-04-13T06:15:59.066Z,5.85
2023-04-13T06:18:29.417Z,5.57
2023-04-13T06:20:57.818Z,5.53
2023-04-13T06:23:24.538Z,5.30
2023-04-13T06:25:52.159Z,5.40
2023-04-13T06:28:19.172Z,5.40
2023-04-13T06:30:46.301Z,5.72
2023-04-13T06:33:15.522Z,5.63
2023-04-13T06:35:42.369Z,5.50
2023-04-13T06:38:10.406Z,6.45
2023-04-13T06:40:37.610Z,5.32
2023-04-13T06:43:06.175Z,5.80
2023-04-13T06:45:34.331Z,5.45
2023-04-13T06:48:02.006Z,5.30
2023-04-13T06:50:29.274Z,6.13
2023-04-13T06:52:56.109Z,5.95
2023-04-13T06:55:23.184Z,5.55
2023-04-13T06:57:50.595Z,5.50
2023-04-13T07:00:29.646Z,5.65
2023-04-13T07:03:00.346Z,6.28
2023-04-13T07:05:27.972Z,6.10
2023-04-13T07:07:55.136Z,6.25
2023-04-13T07:10:22.165Z,6.18
2023-04-13T07:12:49.622Z,5.75
2023-04-13T07:15:16.659Z,5.97
2023-04-13T07:17:43.716Z,6.13
2023-04-13T07:20:12.176Z,6.05
2023-04-13T07:22:41.549Z,6.45
2023-04-13T07:25:08.678Z,6.32
2023-04-13T07:27:35.748Z,6.32
2023-04-13T07:30:02.724Z,6.85
2023-04-13T07:32:31.349Z,6.35
2023-04-13T07:35:02.813Z,6.75
2023-04-13T07:37:36.038Z,6.65
2023-04-13T07:40:05.712Z,6.43
2023-04-13T07:42:32.549Z,6.25
2023-04-13T07:44:59.897Z,6.75
2023-04-13T07:47:27.066Z,6.82
2023-04-13T07:49:54.660Z,6.72
2023-04-13T07:52:22.400Z,6.75
2023-04-13T07:54:49.818Z,5.97
2023-04-13T07:57:21.515Z,6.03
2023-04-13T07:59:48.739Z,6.10
2023-04-13T08:02:17.400Z,5.68
2023-04-13T08:04:46.216Z,5.40
2023-04-13T08:07:13.774Z,6.57
2023-04-13T08:09:42.612Z,5.80
2023-04-13T08:12:10.310Z,6.50
2023-04-13T08:14:37.456Z,5.82
2023-04-13T08:17:06.384Z,5.88
2023-04-13T08:19:34.211Z,6.45
2023-04-13T08:22:01.269Z,6.93
2023-04-13T08:24:28.243Z,5.68
2023-04-13T08:26:58.244Z,6.00
2023-04-13T08:29:25.654Z,5.72
2023-04-13T08:31:53.299Z,6.70
2023-04-13T08:34:21.840Z,6.45
2023-04-13T08:36:48.552Z,6.55
2023-04-13T08:39:16.876Z,6.43
2023-04-13T08:41:48.147Z,6.18
2023-04-13T08:44:15.940Z,7.00
2023-04-13T08:46:46.223Z,5.70
2023-04-13T08:49:13.783Z,5.97
2023-04-13T08:51:43.977Z,6.65
2023-04-13T08:54:13.121Z,6.05
2023-04-13T08:56:45.876Z,6.35
2023-04-13T08:59:15.799Z,6.10
2023-04-13T09:01:46.699Z,6.45
2023-04-13T09:04:18.247Z,6.35
2023-04-13T09:06:48.148Z,5.95
2023-04-13T09:09:15.572Z,6.85
2023-04-13T09:11:43.658Z,6.13
2023-04-13T09:14:10.770Z,7.20
2023-04-13T09:16:42.656Z,6.80
2023-04-13T09:19:10.494Z,6.32
2023-04-13T09:21:39.832Z,6.70
2023-04-13T09:24:07.844Z,6.10
2023-04-13T09:26:50.640Z,6.35
2023-04-13T09:29:19.632Z,7.10
2023-04-13T09:31:48.032Z,6.70
2023-04-13T09:34:25.677Z,6.53
2023-04-13T09:36:54.917Z,6.80
2023-04-13T09:39:28.572Z,6.53
2023-04-13T09:41:56.479Z,6.18
2023-04-13T09:44:35.038Z,6.63
2023-04-13T09:47:08.299Z,7.20
2023-04-13T09:49:38.890Z,7.60
2023-04-13T09:52:08.601Z,8.55
2023-04-13T09:54:51.191Z,7.22
2023-04-13T09:57:29.900Z,7.70
2023-04-13T10:00:01.998Z,7.97
2023-04-13T10:02:32.256Z,7.75
2023-04-13T10:05:01.779Z,8.50
2023-04-13T10:07:31.001Z,8.02
2023-04-13T10:09:58.192Z,8.57
2023-04-13T10:12:27.767Z,8.55
2023-04-13T10:15:05.481Z,9.00
2023-04-13T10:17:43.932Z,9.15
2023-04-13T10:20:14.021Z,8.27
2023-04-13T10:22:44.446Z,8.85
2023-04-13T10:25:32.040Z,9.20
2023-04-13T10:28:05.465Z,9.75
2023-04-13T10:30:32.528Z,8.35
2023-04-13T10:33:06.627Z,9.27
2023-04-13T10:35:40.759Z,8.48
2023-04-13T10:38:20.461Z,8.20
2023-04-13T10:40:48.759Z,8.80
2023-04-13T10:43:26.409Z,9.88
2023-04-13T10:46:05.999Z,8.68
2023-04-13T10:48:32.975Z,10.75
2023-04-13T10:51:00.556Z,9.50
2023-04-13T10:53:31.250Z,9.02
2023-04-13T10:55:58.270Z,10.18
2023-04-13T10:58:27.081Z,10.07
2023-04-13T11:00:57.762Z,9.35
2023-04-13T11:03:29.914Z,10.38
2023-04-13T11:05:59.753Z,9.57
2023-04-13T11:08:28.215Z,10.65
2023-04-13T11:10:56.558Z,10.23
2023-04-13T11:13:29.508Z,10.80
2023-04-13T11:16:04.851Z,9.77
2023-04-13T11:21:06.019Z,9.98
2023-04-13T11:23:34.951Z,9.85
2023-04-13T11:26:02.344Z,9.45
2023-04-13T11:28:43.940Z,9.80
2023-04-13T11:31:12.156Z,9.52
2023-04-13T11:33:40.472Z,8.95
2023-04-13T11:36:08.430Z,9.88
2023-04-13T11:38:35.606Z,10.18
2023-04-13T11:41:15.706Z,10.70
2023-04-13T11:43:48.300Z,10.85
2023-04-13T11:46:23.506Z,10.27
2023-04-13T11:51:21.240Z,12.10
2023-04-13T11:53:51.428Z,10.82
2023-04-13T11:56:18.449Z,12.05
2023-04-13T11:58:45.761Z,11.45
2023-04-13T12:01:21.959Z,11.20
2023-04-13T12:04:01.472Z,11.75
2023-04-13T12:06:35.665Z,11.75
2023-04-13T12:09:11.458Z,11.48
2023-04-13T12:11:44.680Z,11.10
2023-04-13T12:19:27.166Z,11.57
2023-04-13T12:21:58.066Z,12.02
2023-04-13T12:24:39.380Z,11.63
2023-04-13T12:29:40.851Z,10.55
2023-04-13T12:32:15.406Z,10.93
2023-04-13T12:34:44.236Z,11.90
2023-04-13T12:37:12.020Z,11.65
2023-04-13T12:39:39.129Z,11.43
2023-04-13T12:42:06.478Z,10.77
2023-04-13T12:44:34.534Z,11.98
2023-04-13T12:47:02.690Z,11.68
2023-04-13T12:49:30.615Z,13.05
2023-04-13T12:51:57.775Z,11.77
2023-04-13T12:54:24.934Z,12.27
2023-04-13T12:56:52.486Z,11.13
2023-04-13T12:59:22.320Z,12.00
2023-04-13T13:01:49.910Z,13.52
2023-04-13T13:04:17.486Z,12.05
2023-04-13T13:06:44.594Z,13.38
2023-04-13T13:09:12.200Z,11.68
2023-04-13T13:11:39.256Z,11.23
2023-04-13T13:14:06.430Z,11.55
2023-04-13T13:16:33.754Z,11.45
2023-04-13T13:19:00.704Z,11.25
2023-04-13T13:21:28.342Z,10.57
2023-04-13T13:23:55.452Z,12.38
2023-04-13T13:26:24.338Z,11.95
2023-04-13T13:28:53.661Z,12.40
2023-04-13T13:31:20.975Z,11.32
2023-04-13T13:33:47.841Z,12.65
2023-04-13T13:36:15.537Z,11.52
2023-04-13T13:38:43.538Z,12.40
2023-04-13T13:41:11.107Z,11.07
2023-04-13T13:43:51.152Z,11.60
2023-04-13T13:46:18.676Z,11.50
2023-04-13T13:48:45.709Z,11.82
2023-04-13T13:51:12.729Z,11.73
2023-04-13T13:53:39.621Z,12.43
2023-04-13T13:56:06.857Z,12.07
2023-04-13T13:58:33.846Z,11.45
2023-04-13T14:01:00.975Z,11.85
2023-04-13T14:03:30.300Z,11.35
2023-04-13T14:05:57.342Z,12.35
2023-04-13T14:08:24.173Z,12.35
2023-04-13T14:10:51.386Z,11.98
2023-04-13T14:13:18.331Z,12.10
2023-04-13T14:15:45.353Z,11.05
2023-04-13T14:18:12.405Z,11.02
2023-04-13T14:20:40.772Z,11.40
2023-04-13T14:23:09.556Z,10.35
2023-04-13T14:25:38.844Z,11.52
2023-04-13T14:28:06.958Z,11.70
2023-04-13T14:30:33.933Z,12.02
2023-04-13T14:33:01.833Z,11.20
2023-04-13T14:35:29.491Z,11.45
2023-04-13T14:37:57.175Z,10.60
2023-04-13T14:40:24.575Z,9.82
2023-04-13T14:42:55.723Z,10.82
2023-04-13T14:45:22.857Z,10.55
2023-04-13T14:47:50.476Z,11.02
2023-04-13T14:50:18.000Z,9.93
2023-04-13T14:52:46.419Z,10.93
2023-04-13T14:55:14.512Z,10.82
2023-04-13T14:57:42.226Z,9.88
2023-04-13T15:00:16.303Z,10.70
2023-04-13T15:02:43.530Z,10.25
2023-04-13T15:05:10.617Z,8.80
2023-04-13T15:07:37.608Z,10.07
2023-04-13T15:10:08.743Z,10.25
2023-04-13T15:12:35.662Z,9.98
2023-04-13T15:15:02.717Z,9.07
2023-04-13T15:17:30.036Z,9.77
2023-04-13T15:19:57.053Z,10.35
2023-04-13T15:22:24.520Z,9.75
2023-04-13T15:24:51.669Z,9.63
2023-04-13T15:27:18.733Z,9.25
2023-04-13T15:29:46.181Z,9.50
2023-04-13T15:32:13.341Z,9.30
2023-04-13T15:34:40.770Z,9.90
2023-04-13T15:37:07.509Z,8.95
2023-04-13T15:39:34.504Z,9.27
2023-04-13T15:42:02.432Z,8.73
2023-04-13T15:44:29.336Z,9.57
2023-04-13T15:46:56.276Z,9.73
2023-04-13T15:49:23.313Z,8.88
2023-04-13T15:51:50.059Z,8.13
2023-04-13T15:54:17.240Z,8.80
2023-04-13T15:56:44.358Z,8.63
2023-04-13T15:59:11.524Z,7.85
2023-04-13T16:01:47.005Z,7.95
2023-04-13T16:04:14.855Z,7.53
2023-04-13T16:06:42.800Z,8.05
2023-04-13T16:09:12.969Z,8.63
2023-04-13T16:11:40.256Z,7.70
2023-04-13T16:14:07.849Z,7.10
2023-04-13T16:16:46.933Z,7.32
2023-04-13T16:19:18.757Z,6.97
2023-04-13T16:21:47.410Z,7.25
2023-04-13T16:24:15.064Z,7.80
2023-04-13T16:26:43.034Z,6.45
2023-04-13T16:29:10.038Z,6.28
2023-04-13T16:31:37.236Z,7.38
2023-04-13T16:34:22.154Z,7.32
2023-04-13T16:36:52.462Z,5.78
2023-04-13T16:39:19.474Z,6.40
2023-04-13T16:41:46.561Z,7.82
2023-04-13T16:44:14.114Z,6.63
2023-04-13T16:46:41.067Z,7.05
2023-04-13T16:49:08.103Z,6.93
2023-04-13T16:51:35.390Z,7.30
2023-04-13T16:54:04.286Z,6.15
2023-04-13T16:56:31.393Z,6.47
2023-04-13T16:58:58.727Z,7.53
2023-04-13T17:01:26.615Z,5.88
2023-04-13T17:03:54.147Z,6.80
2023-04-13T17:06:21.774Z,6.47
2023-04-13T17:08:49.024Z,6.10
2023-04-13T17:11:16.137Z,7.53
2023-04-13T17:13:43.092Z,6.43
2023-04-13T17:16:10.565Z,6.25
2023-04-13T17:18:37.649Z,5.50
2023-04-13T17:21:04.817Z,6.15
2023-04-13T17:23:32.249Z,5.50
2023-04-13T17:25:59.143Z,5.82
2023-04-13T17:28:26.465Z,5.72
2023-04-13T17:30:54.111Z,6.10
2023-04-13T17:33:21.060Z,5.38
2023-04-13T17:35:48.273Z,7.10
2023-04-13T17:38:15.469Z,6.63
2023-04-13T17:40:42.450Z,5.47
2023-04-13T17:43:09.805Z,5.47
2023-04-13T17:45:39.196Z,7.30
2023-04-13T17:48:08.418Z,5.55
2023-04-13T17:50:35.466Z,5.70
2023-04-13T17:53:04.242Z,6.22
2023-04-13T17:55:31.746Z,6.30
2023-04-13T17:57:58.646Z,5.60
2023-04-13T18:00:27.936Z,5.90
2023-04-13T18:02:55.620Z,6.35
2023-04-13T18:05:22.961Z,5.55
2023-04-13T18:07:50.009Z,6.30
2023-04-13T18:10:17.464Z,5.78
2023-04-13T18:12:44.595Z,5.50
2023-04-13T18:15:11.873Z,6.10
2023-04-13T18:17:39.468Z,6.03
2023-04-13T18:20:07.370Z,6.13
2023-04-13T18:22:35.084Z,6.50
2023-04-13T18:25:02.036Z,5.55
2023-04-13T18:27:29.034Z,5.80
2023-04-13T18:29:56.438Z,5.45
2023-04-13T18:32:24.253Z,6.55
2023-04-13T18:34:53.200Z,6.45
2023-04-13T18:37:21.318Z,6.13
2023-04-13T18:39:48.275Z,6.15
2023-04-13T18:42:15.010Z,5.25
2023-04-13T18:44:41.858Z,6.18
2023-04-13T18:47:08.762Z,6.05
2023-04-13T18:49:35.535Z,5.75
2023-04-13T18:52:02.632Z,6.07
2023-04-13T18:54:30.067Z,6.45
2023-04-13T18:56:57.054Z,5.75
2023-04-13T18:59:23.997Z,6.57
2023-04-13T19:01:51.363Z,5.82
2023-04-13T19:04:18.508Z,6.03
2023-04-13T19:06:45.735Z,6.32
2023-04-13T19:09:12.529Z,6.63
2023-04-13T19:11:47.973Z,6.93
2023-04-13T19:14:14.820Z,6.13
2023-04-13T19:16:42.211Z,5.93
2023-04-13T19:19:09.246Z,5.70
2023-04-13T19:21:36.277Z,5.93
2023-04-13T19:24:03.069Z,6.35
2023-04-13T19:26:30.652Z,5.97
2023-04-13T19:28:57.755Z,5.72
2023-04-13T19:31:24.771Z,5.63
2023-04-13T19:33:52.467Z,5.60
2023-04-13T19:36:19.742Z,6.20
2023-04-13T19:38:47.273Z,5.90
2023-04-13T19:41:14.654Z,5.88
2023-04-13T19:43:41.711Z,7.05
2023-04-13T19:46:08.861Z,5.45
2023-04-13T19:48:36.329Z,6.20
2023-04-13T19:51:03.355Z,6.60
2023-04-13T19:53:30.159Z,6.32
2023-04-13T19:55:58.352Z,5.78
2023-04-13T19:58:25.321Z,5.65
2023-04-13T20:00:52.988Z,6.68
2023-04-13T20:03:20.601Z,6.15
2023-04-13T20:05:48.646Z,5.47
2023-04-13T20:08:16.602Z,6.03
2023-04-13T20:10:43.638Z,6.07
2023-04-13T20:13:11.456Z,6.80
2023-04-13T20:15:38.596Z,5.85
2023-04-13T20:18:06.745Z,6.35
2023-04-13T20:20:35.622Z,6.63
2023-04-13T20:23:03.295Z,6.10
2023-04-13T20:25:30.532Z,5.55
2023-04-13T20:27:57.430Z,6.32
2023-04-13T20:30:24.846Z,6.57
2023-04-13T20:32:51.707Z,6.38
2023-04-13T20:35:20.040Z,7.43
2023-04-13T20:37:46.717Z,6.75
2023-04-13T20:40:13.730Z,6.38
2023-04-13T20:42:44.504Z,6.28
2023-04-13T20:45:15.356Z,6.43
2023-04-13T20:47:45.122Z,8.50
2023-04-13T20:50:13.347Z,7.80
2023-04-13T20:52:42.116Z,6.45
2023-04-13T20:55:12.058Z,7.07
2023-04-13T20:57:42.270Z,6.95
2023-04-13T21:00:15.448Z,6.43
2023-04-13T21:02:43.868Z,6.80
2023-04-13T21:05:10.826Z,7.07
2023-04-13T21:07:38.236Z,6.90
2023-04-13T21:10:05.544Z,7.50
2023-04-13T21:12:32.545Z,6.22
2023-04-13T21:15:00.994Z,6.55
2023-04-13T21:17:31.066Z,7.65
2023-04-13T21:19:58.155Z,6.88
2023-04-13T21:22:25.124Z,6.78
2023-04-13T21:24:52.646Z,7.38
2023-04-13T21:27:19.680Z,7.93
2023-04-13T21:29:46.693Z,6.63
2023-04-13T21:32:13.889Z,7.18
2023-04-13T21:34:50.306Z,8.30
2023-04-13T21:37:17.070Z,6.65
2023-04-13T21:39:44.005Z,7.35
2023-04-13T21:42:11.164Z,7.97
2023-04-13T21:44:38.519Z,7.22
2023-04-13T21:47:06.277Z,8.02
2023-04-13T21:49:33.164Z,6.90
2023-04-13T21:52:00.230Z,7.68
2023-04-13T21:54:27.076Z,6.57
2023-04-13T21:56:53.750Z,7.75
2023-04-13T21:59:21.300Z,7.40
2023-04-13T22:01:48.346Z,6.90
2023-04-13T22:04:15.380Z,6.50
2023-04-13T22:06:42.121Z,7.18
2023-04-13T22:09:09.046Z,6.80
2023-04-13T22:11:36.159Z,7.75
2023-04-13T22:14:02.898Z,6.60
2023-04-13T22:16:30.248Z,6.90
2023-04-13T22:19:00.398Z,6.68
2023-04-13T22:21:28.012Z,6.88
2023-04-13T22:23:55.569Z,7.07
2023-04-13T22:26:22.726Z,7.00
2023-04-13T22:28:49.473Z,7.38
2023-04-13T22:31:16.986Z,6.75
2023-04-13T22:33:44.123Z,7.15
2023-04-13T22:36:20.060Z,6.32
2023-04-13T22:38:49.435Z,6.78
2023-04-13T22:41:16.757Z,8.40
2023-04-13T22:43:43.759Z,7.05
2023-04-13T22:46:12.682Z,7.47
2023-04-13T22:48:39.738Z,7.90
2023-04-13T22:51:06.767Z,8.07
2023-04-13T22:53:33.884Z,7.05
2023-04-13T22:56:01.114Z,8.30
2023-04-13T22:58:28.305Z,7.88
2023-04-13T23:00:55.588Z,7.28
2023-04-13T23:03:23.033Z,8.15
2023-04-13T23:05:50.321Z,7.25
2023-04-13T23:08:17.392Z,7.85
2023-04-13T23:10:44.459Z,8.68
2023-04-13T23:13:11.572Z,7.30
2023-04-13T23:15:39.580Z,7.05
2023-04-13T23:18:07.084Z,8.07
2023-04-13T23:20:34.342Z,7.35
2023-04-13T23:23:01.331Z,6.43
2023-04-13T23:25:28.000Z,7.47
2023-04-13T23:27:55.024Z,7.65
2023-04-13T23:30:22.151Z,7.28
2023-04-13T23:32:49.053Z,7.57
2023-04-13T23:35:16.164Z,6.75
2023-04-13T23:37:45.414Z,7.28
2023-04-13T23:40:12.621Z,6.72
2023-04-13T23:42:39.738Z,8.43
2023-04-13T23:45:10.542Z,7.13
2023-04-13T23:47:38.150Z,7.18
2023-04-13T23:50:05.491Z,7.03
2023-04-13T23:52:35.200Z,7.63
2023-04-13T23:55:02.439Z,7.70
2023-04-13T23:57:34.247Z,7.63
